sensor_id;sensor_type;location;lat;lon;timestamp;P1;durP1;ratioP1;P2;durP2;ratioP2
26512;SDS011;14186;53.822;10.152;2023-05-07T00:04:06;12.88;;;8.27;;
26512;SDS011;14186;53.822;10.152;2023-05-07T00:09:07;12.18;;;8.13;;
26512;SDS011;14186;53.822;10.152;2023-05-07T00:14:08;16.20;;;10.40;;
26512;SDS011;14186;53.822;10.152;2023-05-07T00:19:08;15.13;;;8.95;;
26512;SDS011;14186;53.822;10.152;2023-05-07T00:24:09;15.60;;;9.55;;
26512;SDS011;14186;53.822;10.152;2023-05-07T00:29:10;11.65;;;8.18;;
26512;SDS011;14186;53.822;10.152;2023-05-07T00:34:10;12.85;;;8.32;;
26512;SDS011;14186;53.822;10.152;2023-05-07T00:39:11;13.52;;;8.20;;
26512;SDS011;14186;53.822;10.152;2023-05-07T00:44:12;12.30;;;7.40;;
26512;SDS011;14186;53.822;10.152;2023-05-07T00:49:12;13.52;;;7.93;;
26512;SDS011;14186;53.822;10.152;2023-05-07T00:54:13;14.07;;;8.45;;
26512;SDS011;14186;53.822;10.152;2023-05-07T00:59:14;14.93;;;8.68;;
26512;SDS011;14186;53.822;10.152;2023-05-07T01:04:14;13.25;;;8.48;;
26512;SDS011;14186;53.822;10.152;2023-05-07T01:09:15;13.65;;;8.73;;
26512;SDS011;14186;53.822;10.152;2023-05-07T01:14:16;13.68;;;8.55;;
26512;SDS011;14186;53.822;10.152;2023-05-07T01:19:17;13.88;;;8.70;;
26512;SDS011;14186;53.822;10.152;2023-05-07T01:24:19;17.85;;;9.65;;
26512;SDS011;14186;53.822;10.152;2023-05-07T01:29:19;16.25;;;9.48;;
26512;SDS011;14186;53.822;10.152;2023-05-07T01:34:19;15.95;;;10.60;;
26512;SDS011;14186;53.822;10.152;2023-05-07T01:39:23;18.65;;;10.88;;
26512;SDS011;14186;53.822;10.152;2023-05-07T01:44:23;16.75;;;10.98;;
26512;SDS011;14186;53.822;10.152;2023-05-07T01:49:24;18.80;;;11.15;;
26512;SDS011;14186;53.822;10.152;2023-05-07T01:54:26;17.38;;;10.93;;
26512;SDS011;14186;53.822;10.152;2023-05-07T01:59:26;17.17;;;10.23;;
26512;SDS011;14186;53.822;10.152;2023-05-07T02:04:27;17.90;;;10.48;;
26512;SDS011;14186;53.822;10.152;2023-05-07T02:09:28;18.23;;;10.68;;
26512;SDS011;14186;53.822;10.152;2023-05-07T02:14:28;16.75;;;10.98;;
26512;SDS011;14186;53.822;10.152;2023-05-07T02:19:29;16.58;;;10.07;;
26512;SDS011;14186;53.822;10.152;2023-05-07T02:24:30;20.23;;;11.65;;
26512;SDS011;14186;53.822;10.152;2023-05-07T02:29:31;19.10;;;10.93;;
26512;SDS011;14186;53.822;10.152;2023-05-07T02:34:31;21.55;;;11.15;;
26512;SDS011;14186;53.822;10.152;2023-05-07T02:39:32;18.73;;;12.43;;
26512;SDS011;14186;53.822;10.152;2023-05-07T02:44:33;18.63;;;12.10;;
26512;SDS011;14186;53.822;10.152;2023-05-07T02:49:33;16.02;;;10.88;;
26512;SDS011;14186;53.822;10.152;2023-05-07T02:54:34;15.63;;;10.30;;
26512;SDS011;14186;53.822;10.152;2023-05-07T02:59:34;14.38;;;8.60;;
26512;SDS011;14186;53.822;10.152;2023-05-07T03:04:35;12.63;;;8.20;;
26512;SDS011;14186;53.822;10.152;2023-05-07T03:09:36;13.25;;;7.88;;
26512;SDS011;14186;53.822;10.152;2023-05-07T03:14:36;13.27;;;8.18;;
26512;SDS011;14186;53.822;10.152;2023-05-07T03:19:37;11.85;;;7.20;;
26512;SDS011;14186;53.822;10.152;2023-05-07T03:24:38;11.82;;;6.72;;
26512;SDS011;14186;53.822;10.152;2023-05-07T03:29:38;11.65;;;7.63;;
26512;SDS011;14186;53.822;10.152;2023-05-07T03:34:38;10.82;;;6.35;;
26512;SDS011;14186;53.822;10.152;2023-05-07T03:39:40;12.07;;;6.82;;
26512;SDS011;14186;53.822;10.152;2023-05-07T03:44:40;10.63;;;6.43;;
26512;SDS011;14186;53.822;10.152;2023-05-07T03:49:40;13.00;;;7.18;;
26512;SDS011;14186;53.822;10.152;2023-05-07T03:54:42;14.18;;;7.60;;
26512;SDS011;14186;53.822;10.152;2023-05-07T03:59:42;10.80;;;7.47;;
26512;SDS011;14186;53.822;10.152;2023-05-07T04:04:42;11.77;;;7.43;;
26512;SDS011;14186;53.822;10.152;2023-05-07T04:09:44;12.38;;;7.47;;
26512;SDS011;14186;53.822;10.152;2023-05-07T04:14:44;12.75;;;7.35;;
26512;SDS011;14186;53.822;10.152;2023-05-07T04:19:44;13.45;;;7.90;;
26512;SDS011;14186;53.822;10.152;2023-05-07T04:24:46;12.73;;;7.32;;
26512;SDS011;14186;53.822;10.152;2023-05-07T04:29:46;16.35;;;9.30;;
26512;SDS011;14186;53.822;10.152;2023-05-07T04:34:46;12.18;;;7.15;;
26512;SDS011;14186;53.822;10.152;2023-05-07T04:39:48;11.10;;;6.65;;
26512;SDS011;14186;53.822;10.152;2023-05-07T04:44:52;20.40;;;8.90;;
26512;SDS011;14186;53.822;10.152;2023-05-07T04:49:52;13.57;;;7.90;;
26512;SDS011;14186;53.822;10.152;2023-05-07T04:54:54;10.98;;;7.03;;
26512;SDS011;14186;53.822;10.152;2023-05-07T04:59:54;12.77;;;6.65;;
26512;SDS011;14186;53.822;10.152;2023-05-07T05:04:54;12.48;;;6.97;;
26512;SDS011;14186;53.822;10.152;2023-05-07T05:09:56;11.27;;;6.55;;
26512;SDS011;14186;53.822;10.152;2023-05-07T05:14:56;11.88;;;6.88;;
26512;SDS011;14186;53.822;10.152;2023-05-07T05:19:56;12.02;;;6.35;;
26512;SDS011;14186;53.822;10.152;2023-05-07T05:24:58;10.32;;;6.55;;
26512;SDS011;14186;53.822;10.152;2023-05-07T05:29:58;10.35;;;6.35;;
26512;SDS011;14186;53.822;10.152;2023-05-07T05:34:58;11.35;;;6.35;;
26512;SDS011;14186;53.822;10.152;2023-05-07T05:39:59;10.27;;;5.80;;
26512;SDS011;14186;53.822;10.152;2023-05-07T05:45:00;10.43;;;6.35;;
26512;SDS011;14186;53.822;10.152;2023-05-07T05:50:00;9.60;;;6.18;;
26512;SDS011;14186;53.822;10.152;2023-05-07T05:55:01;11.10;;;6.10;;
26512;SDS011;14186;53.822;10.152;2023-05-07T06:00:02;8.98;;;5.60;;
26512;SDS011;14186;53.822;10.152;2023-05-07T06:05:02;9.13;;;5.72;;
26512;SDS011;14186;53.822;10.152;2023-05-07T06:10:05;9.30;;;5.53;;
26512;SDS011;14186;53.822;10.152;2023-05-07T06:15:06;8.35;;;5.13;;
26512;SDS011;14186;53.822;10.152;2023-05-07T06:20:06;9.13;;;5.43;;
26512;SDS011;14186;53.822;10.152;2023-05-07T06:25:08;8.07;;;5.22;;
26512;SDS011;14186;53.822;10.152;2023-05-07T06:30:09;8.70;;;5.18;;
26512;SDS011;14186;53.822;10.152;2023-05-07T06:35:09;9.13;;;5.63;;
26512;SDS011;14186;53.822;10.152;2023-05-07T06:40:11;8.48;;;5.28;;
26512;SDS011;14186;53.822;10.152;2023-05-07T06:45:11;10.30;;;5.32;;
26512;SDS011;14186;53.822;10.152;2023-05-07T06:50:11;8.55;;;4.85;;
26512;SDS011;14186;53.822;10.152;2023-05-07T06:55:13;7.07;;;4.73;;
26512;SDS011;14186;53.822;10.152;2023-05-07T07:00:14;9.48;;;5.13;;
26512;SDS011;14186;53.822;10.152;2023-05-07T07:05:14;8.63;;;5.10;;
26512;SDS011;14186;53.822;10.152;2023-05-07T07:10:16;7.70;;;4.80;;
26512;SDS011;14186;53.822;10.152;2023-05-07T07:15:16;7.30;;;4.60;;
26512;SDS011;14186;53.822;10.152;2023-05-07T07:20:16;6.83;;;4.80;;
26512;SDS011;14186;53.822;10.152;2023-05-07T07:25:18;7.60;;;4.15;;
26512;SDS011;14186;53.822;10.152;2023-05-07T07:30:18;8.90;;;4.43;;
26512;SDS011;14186;53.822;10.152;2023-05-07T07:35:18;6.45;;;4.03;;
26512;SDS011;14186;53.822;10.152;2023-05-07T07:40:20;6.65;;;4.28;;
26512;SDS011;14186;53.822;10.152;2023-05-07T07:45:20;6.30;;;4.18;;
26512;SDS011;14186;53.822;10.152;2023-05-07T07:50:20;7.15;;;4.10;;
26512;SDS011;14186;53.822;10.152;2023-05-07T07:55:22;5.13;;;3.33;;
26512;SDS011;14186;53.822;10.152;2023-05-07T08:00:22;5.82;;;3.75;;
26512;SDS011;14186;53.822;10.152;2023-05-07T08:05:23;5.90;;;3.30;;
26512;SDS011;14186;53.822;10.152;2023-05-07T08:10:24;4.07;;;3.05;;
26512;SDS011;14186;53.822;10.152;2023-05-07T08:15:25;5.13;;;3.13;;
26512;SDS011;14186;53.822;10.152;2023-05-07T08:20:25;5.60;;;3.20;;
26512;SDS011;14186;53.822;10.152;2023-05-07T08:25:26;5.05;;;3.05;;
26512;SDS011;14186;53.822;10.152;2023-05-07T08:30:27;6.28;;;4.20;;
26512;SDS011;14186;53.822;10.152;2023-05-07T08:35:27;7.15;;;3.70;;
26512;SDS011;14186;53.822;10.152;2023-05-07T08:40:29;6.70;;;4.07;;
26512;SDS011;14186;53.822;10.152;2023-05-07T08:45:32;4.53;;;3.27;;
26512;SDS011;14186;53.822;10.152;2023-05-07T08:50:34;5.60;;;3.88;;
26512;SDS011;14186;53.822;10.152;2023-05-07T08:55:36;5.47;;;4.15;;
26512;SDS011;14186;53.822;10.152;2023-05-07T09:00:36;6.80;;;3.90;;
26512;SDS011;14186;53.822;10.152;2023-05-07T09:05:37;4.00;;;2.88;;
26512;SDS011;14186;53.822;10.152;2023-05-07T09:10:38;5.47;;;3.25;;
26512;SDS011;14186;53.822;10.152;2023-05-07T09:15:38;4.22;;;2.65;;
26512;SDS011;14186;53.822;10.152;2023-05-07T09:20:39;5.68;;;2.95;;
26512;SDS011;14186;53.822;10.152;2023-05-07T09:25:40;5.47;;;3.47;;
26512;SDS011;14186;53.822;10.152;2023-05-07T09:30:41;6.82;;;3.03;;
26512;SDS011;14186;53.822;10.152;2023-05-07T09:35:41;7.38;;;3.65;;
26512;SDS011;14186;53.822;10.152;2023-05-07T09:40:42;4.13;;;2.70;;
26512;SDS011;14186;53.822;10.152;2023-05-07T09:45:43;4.45;;;3.05;;
26512;SDS011;14186;53.822;10.152;2023-05-07T09:50:44;4.68;;;3.05;;
26512;SDS011;14186;53.822;10.152;2023-05-07T09:55:49;4.50;;;2.97;;
26512;SDS011;14186;53.822;10.152;2023-05-07T10:00:50;4.43;;;2.78;;
26512;SDS011;14186;53.822;10.152;2023-05-07T10:05:51;3.83;;;2.60;;
26512;SDS011;14186;53.822;10.152;2023-05-07T10:10:53;4.18;;;2.55;;
26512;SDS011;14186;53.822;10.152;2023-05-07T10:15:53;6.60;;;3.00;;
26512;SDS011;14186;53.822;10.152;2023-05-07T10:20:53;5.20;;;3.05;;
26512;SDS011;14186;53.822;10.152;2023-05-07T10:25:55;4.80;;;3.10;;
26512;SDS011;14186;53.822;10.152;2023-05-07T10:30:58;6.97;;;3.60;;
26512;SDS011;14186;53.822;10.152;2023-05-07T10:36:02;5.68;;;2.72;;
26512;SDS011;14186;53.822;10.152;2023-05-07T10:41:04;3.85;;;2.65;;
26512;SDS011;14186;53.822;10.152;2023-05-07T10:46:11;3.92;;;2.95;;
26512;SDS011;14186;53.822;10.152;2023-05-07T10:51:18;4.07;;;2.25;;
26512;SDS011;14186;53.822;10.152;2023-05-07T10:56:26;5.72;;;2.72;;
26512;SDS011;14186;53.822;10.152;2023-05-07T11:07:00;3.60;;;2.15;;
26512;SDS011;14186;53.822;10.152;2023-05-07T11:12:15;4.90;;;2.72;;
26512;SDS011;14186;53.822;10.152;2023-05-07T11:17:15;5.78;;;2.42;;
26512;SDS011;14186;53.822;10.152;2023-05-07T11:27:32;3.83;;;2.50;;
26512;SDS011;14186;53.822;10.152;2023-05-07T11:32:33;5.88;;;2.97;;
26512;SDS011;14186;53.822;10.152;2023-05-07T11:37:33;4.32;;;2.35;;
26512;SDS011;14186;53.822;10.152;2023-05-07T11:42:35;4.55;;;3.13;;
26512;SDS011;14186;53.822;10.152;2023-05-07T11:47:36;3.70;;;2.17;;
26512;SDS011;14186;53.822;10.152;2023-05-07T11:52:36;4.28;;;1.77;;
26512;SDS011;14186;53.822;10.152;2023-05-07T11:57:37;3.65;;;1.48;;
26512;SDS011;14186;53.822;10.152;2023-05-07T12:02:37;4.72;;;1.77;;
26512;SDS011;14186;53.822;10.152;2023-05-07T12:07:38;3.15;;;1.92;;
26512;SDS011;14186;53.822;10.152;2023-05-07T12:12:39;2.92;;;1.80;;
26512;SDS011;14186;53.822;10.152;2023-05-07T12:17:40;3.08;;;1.45;;
26512;SDS011;14186;53.822;10.152;2023-05-07T12:22:40;4.18;;;1.70;;
26512;SDS011;14186;53.822;10.152;2023-05-07T12:27:42;4.28;;;1.77;;
26512;SDS011;14186;53.822;10.152;2023-05-07T12:32:42;2.42;;;1.58;;
26512;SDS011;14186;53.822;10.152;2023-05-07T12:37:44;3.47;;;1.55;;
26512;SDS011;14186;53.822;10.152;2023-05-07T12:42:55;1.52;;;1.25;;
26512;SDS011;14186;53.822;10.152;2023-05-07T12:47:55;2.75;;;1.65;;
26512;SDS011;14186;53.822;10.152;2023-05-07T12:52:56;3.17;;;1.33;;
26512;SDS011;14186;53.822;10.152;2023-05-07T12:58:00;2.47;;;1.20;;
26512;SDS011;14186;53.822;10.152;2023-05-07T13:03:00;2.30;;;1.27;;
26512;SDS011;14186;53.822;10.152;2023-05-07T13:08:00;1.92;;;1.45;;
26512;SDS011;14186;53.822;10.152;2023-05-07T13:13:02;3.37;;;1.67;;
26512;SDS011;14186;53.822;10.152;2023-05-07T13:18:02;2.25;;;1.40;;
26512;SDS011;14186;53.822;10.152;2023-05-07T13:23:03;2.47;;;1.53;;
26512;SDS011;14186;53.822;10.152;2023-05-07T13:28:04;4.50;;;1.60;;
26512;SDS011;14186;53.822;10.152;2023-05-07T13:33:04;2.28;;;1.80;;
26512;SDS011;14186;53.822;10.152;2023-05-07T13:38:05;2.30;;;1.17;;
26512;SDS011;14186;53.822;10.152;2023-05-07T13:43:06;3.10;;;1.50;;
26512;SDS011;14186;53.822;10.152;2023-05-07T13:48:06;1.80;;;1.20;;
26512;SDS011;14186;53.822;10.152;2023-05-07T13:53:07;2.08;;;1.05;;
26512;SDS011;14186;53.822;10.152;2023-05-07T13:58:09;3.28;;;1.70;;
26512;SDS011;14186;53.822;10.152;2023-05-07T14:03:09;2.15;;;1.45;;
26512;SDS011;14186;53.822;10.152;2023-05-07T14:08:09;3.65;;;1.30;;
26512;SDS011;14186;53.822;10.152;2023-05-07T14:13:11;2.55;;;1.40;;
26512;SDS011;14186;53.822;10.152;2023-05-07T14:18:11;2.00;;;1.40;;
26512;SDS011;14186;53.822;10.152;2023-05-07T14:23:11;2.38;;;1.00;;
26512;SDS011;14186;53.822;10.152;2023-05-07T14:28:13;2.55;;;1.35;;
26512;SDS011;14186;53.822;10.152;2023-05-07T14:33:13;7.78;;;2.85;;
26512;SDS011;14186;53.822;10.152;2023-05-07T14:38:13;1.65;;;1.17;;
26512;SDS011;14186;53.822;10.152;2023-05-07T14:43:14;2.78;;;1.33;;
26512;SDS011;14186;53.822;10.152;2023-05-07T14:48:15;2.90;;;1.25;;
26512;SDS011;14186;53.822;10.152;2023-05-07T14:53:15;2.17;;;1.13;;
26512;SDS011;14186;53.822;10.152;2023-05-07T14:58:17;2.73;;;1.50;;
26512;SDS011;14186;53.822;10.152;2023-05-07T15:03:17;2.88;;;1.48;;
26512;SDS011;14186;53.822;10.152;2023-05-07T15:08:17;1.98;;;1.40;;
26512;SDS011;14186;53.822;10.152;2023-05-07T15:13:19;2.28;;;1.58;;
26512;SDS011;14186;53.822;10.152;2023-05-07T15:18:19;2.60;;;1.50;;
26512;SDS011;14186;53.822;10.152;2023-05-07T15:23:19;1.50;;;1.33;;
26512;SDS011;14186;53.822;10.152;2023-05-07T15:28:21;5.63;;;1.73;;
26512;SDS011;14186;53.822;10.152;2023-05-07T15:33:21;5.20;;;1.63;;
26512;SDS011;14186;53.822;10.152;2023-05-07T15:38:21;3.70;;;1.50;;
26512;SDS011;14186;53.822;10.152;2023-05-07T15:43:23;3.10;;;1.65;;
26512;SDS011;14186;53.822;10.152;2023-05-07T15:48:23;2.67;;;1.15;;
26512;SDS011;14186;53.822;10.152;2023-05-07T15:53:23;4.20;;;1.27;;
26512;SDS011;14186;53.822;10.152;2023-05-07T15:58:24;5.40;;;1.50;;
26512;SDS011;14186;53.822;10.152;2023-05-07T16:03:25;2.95;;;2.05;;
26512;SDS011;14186;53.822;10.152;2023-05-07T16:08:26;2.00;;;1.42;;
26512;SDS011;14186;53.822;10.152;2023-05-07T16:13:28;1.93;;;1.40;;
26512;SDS011;14186;53.822;10.152;2023-05-07T16:18:28;2.55;;;1.50;;
26512;SDS011;14186;53.822;10.152;2023-05-07T16:23:28;1.67;;;1.13;;
26512;SDS011;14186;53.822;10.152;2023-05-07T16:28:29;2.88;;;1.55;;
26512;SDS011;14186;53.822;10.152;2023-05-07T16:33:30;2.30;;;1.30;;
26512;SDS011;14186;53.822;10.152;2023-05-07T16:38:30;2.70;;;1.40;;
26512;SDS011;14186;53.822;10.152;2023-05-07T16:43:31;2.75;;;1.50;;
26512;SDS011;14186;53.822;10.152;2023-05-07T16:48:32;5.00;;;1.70;;
26512;SDS011;14186;53.822;10.152;2023-05-07T16:53:32;2.90;;;1.48;;
26512;SDS011;14186;53.822;10.152;2023-05-07T16:58:34;2.33;;;1.40;;
26512;SDS011;14186;53.822;10.152;2023-05-07T17:03:34;2.63;;;1.60;;
26512;SDS011;14186;53.822;10.152;2023-05-07T17:08:34;3.80;;;1.45;;
26512;SDS011;14186;53.822;10.152;2023-05-07T17:13:37;2.80;;;1.65;;
26512;SDS011;14186;53.822;10.152;2023-05-07T17:18:37;3.33;;;1.52;;
26512;SDS011;14186;53.822;10.152;2023-05-07T17:23:37;3.28;;;1.50;;
26512;SDS011;14186;53.822;10.152;2023-05-07T17:28:39;1.75;;;1.15;;
26512;SDS011;14186;53.822;10.152;2023-05-07T17:33:39;4.60;;;1.48;;
26512;SDS011;14186;53.822;10.152;2023-05-07T17:38:39;4.10;;;2.67;;
26512;SDS011;14186;53.822;10.152;2023-05-07T17:43:41;3.35;;;1.20;;
26512;SDS011;14186;53.822;10.152;2023-05-07T17:48:41;3.45;;;1.60;;
26512;SDS011;14186;53.822;10.152;2023-05-07T17:53:41;5.72;;;1.35;;
26512;SDS011;14186;53.822;10.152;2023-05-07T17:58:43;2.55;;;1.20;;
26512;SDS011;14186;53.822;10.152;2023-05-07T18:03:43;2.63;;;1.33;;
26512;SDS011;14186;53.822;10.152;2023-05-07T18:08:43;4.93;;;1.40;;
26512;SDS011;14186;53.822;10.152;2023-05-07T18:13:45;1.60;;;1.20;;
26512;SDS011;14186;53.822;10.152;2023-05-07T18:18:45;4.78;;;1.40;;
26512;SDS011;14186;53.822;10.152;2023-05-07T18:23:45;4.65;;;2.50;;
26512;SDS011;14186;53.822;10.152;2023-05-07T18:28:47;4.40;;;1.40;;
26512;SDS011;14186;53.822;10.152;2023-05-07T18:33:49;2.33;;;1.50;;
26512;SDS011;14186;53.822;10.152;2023-05-07T18:38:49;4.30;;;1.35;;
26512;SDS011;14186;53.822;10.152;2023-05-07T18:43:51;4.93;;;1.48;;
26512;SDS011;14186;53.822;10.152;2023-05-07T18:48:51;3.20;;;1.55;;
26512;SDS011;14186;53.822;10.152;2023-05-07T18:53:51;2.08;;;1.30;;
26512;SDS011;14186;53.822;10.152;2023-05-07T18:58:53;3.97;;;1.50;;
26512;SDS011;14186;53.822;10.152;2023-05-07T19:03:53;3.85;;;1.48;;
26512;SDS011;14186;53.822;10.152;2023-05-07T19:08:53;6.80;;;1.90;;
26512;SDS011;14186;53.822;10.152;2023-05-07T19:13:55;3.05;;;1.50;;
26512;SDS011;14186;53.822;10.152;2023-05-07T19:18:55;1.98;;;1.30;;
26512;SDS011;14186;53.822;10.152;2023-05-07T19:23:55;4.05;;;1.55;;
26512;SDS011;14186;53.822;10.152;2023-05-07T19:28:57;5.10;;;1.83;;
26512;SDS011;14186;53.822;10.152;2023-05-07T19:33:57;4.45;;;1.50;;
26512;SDS011;14186;53.822;10.152;2023-05-07T19:38:57;4.93;;;1.70;;
26512;SDS011;14186;53.822;10.152;2023-05-07T19:43:59;3.38;;;1.45;;
26512;SDS011;14186;53.822;10.152;2023-05-07T19:48:59;2.58;;;1.33;;
26512;SDS011;14186;53.822;10.152;2023-05-07T19:54:00;3.90;;;1.55;;
26512;SDS011;14186;53.822;10.152;2023-05-07T19:59:01;4.57;;;1.70;;
26512;SDS011;14186;53.822;10.152;2023-05-07T20:04:01;3.88;;;1.52;;
26512;SDS011;14186;53.822;10.152;2023-05-07T20:09:02;4.30;;;1.77;;
26512;SDS011;14186;53.822;10.152;2023-05-07T20:14:03;2.35;;;1.60;;
26512;SDS011;14186;53.822;10.152;2023-05-07T20:19:03;6.43;;;2.08;;
26512;SDS011;14186;53.822;10.152;2023-05-07T20:24:04;6.45;;;2.00;;
26512;SDS011;14186;53.822;10.152;2023-05-07T20:29:06;3.03;;;1.50;;
26512;SDS011;14186;53.822;10.152;2023-05-07T20:34:06;3.90;;;2.28;;
26512;SDS011;14186;53.822;10.152;2023-05-07T20:39:06;4.22;;;1.73;;
26512;SDS011;14186;53.822;10.152;2023-05-07T20:44:08;6.18;;;2.03;;
26512;SDS011;14186;53.822;10.152;2023-05-07T20:49:08;5.15;;;1.90;;
26512;SDS011;14186;53.822;10.152;2023-05-07T20:54:08;4.82;;;1.63;;
26512;SDS011;14186;53.822;10.152;2023-05-07T20:59:10;3.38;;;1.98;;
26512;SDS011;14186;53.822;10.152;2023-05-07T21:04:10;4.55;;;1.92;;
26512;SDS011;14186;53.822;10.152;2023-05-07T21:09:10;4.20;;;1.52;;
26512;SDS011;14186;53.822;10.152;2023-05-07T21:14:12;6.53;;;1.63;;
26512;SDS011;14186;53.822;10.152;2023-05-07T21:19:12;3.58;;;2.13;;
26512;SDS011;14186;53.822;10.152;2023-05-07T21:24:12;4.32;;;1.65;;
26512;SDS011;14186;53.822;10.152;2023-05-07T21:29:14;3.92;;;1.67;;
26512;SDS011;14186;53.822;10.152;2023-05-07T21:34:14;5.15;;;1.75;;
26512;SDS011;14186;53.822;10.152;2023-05-07T21:39:14;4.47;;;1.77;;
26512;SDS011;14186;53.822;10.152;2023-05-07T21:44:15;3.58;;;1.95;;
26512;SDS011;14186;53.822;10.152;2023-05-07T21:49:16;3.50;;;1.88;;
26512;SDS011;14186;53.822;10.152;2023-05-07T21:54:16;3.05;;;1.73;;
26512;SDS011;14186;53.822;10.152;2023-05-07T21:59:17;4.63;;;1.55;;
26512;SDS011;14186;53.822;10.152;2023-05-07T22:04:18;3.53;;;2.00;;
26512;SDS011;14186;53.822;10.152;2023-05-07T22:09:18;3.28;;;1.70;;
26512;SDS011;14186;53.822;10.152;2023-05-07T22:14:19;3.40;;;1.90;;
26512;SDS011;14186;53.822;10.152;2023-05-07T22:19:20;5.75;;;2.00;;
26512;SDS011;14186;53.822;10.152;2023-05-07T22:24:20;2.88;;;1.70;;
26512;SDS011;14186;53.822;10.152;2023-05-07T22:29:21;4.22;;;1.92;;
26512;SDS011;14186;53.822;10.152;2023-05-07T22:34:22;4.72;;;2.05;;
26512;SDS011;14186;53.822;10.152;2023-05-07T22:39:22;3.73;;;2.10;;
26512;SDS011;14186;53.822;10.152;2023-05-07T22:44:23;4.20;;;2.42;;
26512;SDS011;14186;53.822;10.152;2023-05-07T22:49:24;3.75;;;1.85;;
26512;SDS011;14186;53.822;10.152;2023-05-07T22:54:24;2.97;;;1.95;;
26512;SDS011;14186;53.822;10.152;2023-05-07T22:59:25;3.75;;;1.67;;
26512;SDS011;14186;53.822;10.152;2023-05-07T23:04:26;3.65;;;2.10;;
26512;SDS011;14186;53.822;10.152;2023-05-07T23:09:26;4.50;;;3.10;;
26512;SDS011;14186;53.822;10.152;2023-05-07T23:14:27;5.45;;;1.95;;
26512;SDS011;14186;53.822;10.152;2023-05-07T23:19:28;4.20;;;2.00;;
26512;SDS011;14186;53.822;10.152;2023-05-07T23:24:28;4.15;;;2.10;;
26512;SDS011;14186;53.822;10.152;2023-05-07T23:29:29;4.38;;;2.05;;
26512;SDS011;14186;53.822;10.152;2023-05-07T23:34:30;4.07;;;2.20;;
26512;SDS011;14186;53.822;10.152;2023-05-07T23:39:30;3.88;;;2.20;;
26512;SDS011;14186;53.822;10.152;2023-05-07T23:44:31;3.03;;;2.00;;
26512;SDS011;14186;53.822;10.152;2023-05-07T23:49:32;2.17;;;1.63;;
26512;SDS011;14186;53.822;10.152;2023-05-07T23:54:32;3.10;;;2.10;;
26512;SDS011;14186;53.822;10.152;2023-05-07T23:59:33;3.38;;;2.03;;
